JA3VQW-13 Weather Reports


Display with metric or nautical units.
time (UTC)temp
F
wind
direction
speed
MPH
gust
MPH
rain 1hr
in
rain 24hr
in
rain mn
in
humidity
%
barometer
mb
20190116170335 35 135 0.0 0.0 0.00 0.00 0.00 82 1006.0
20190116164835 35 135 0.0 0.0 0.00 0.00 0.00 80 1007.0
20190116163335 35 135 0.0 0.0 0.00 0.00 0.00 79 1006.0
20190116161836 36 135 0.0 0.0 0.00 0.00 0.00 79 1006.0
20190116160337 35 135 0.0 0.0 0.00 0.00 0.00 77 1007.0
20190116154835 36 135 0.0 2.0 0.00 0.00 0.00 74 1006.0
20190116153336 36 135 0.0 0.0 0.00 0.00 0.00 73 1007.0
20190116152800 36 135 0.0 0.0 0.00 0.00 0.00 73 1007.0
20190116151836 37 225 0.0 0.0 0.00 0.00 0.00 72 1007.0
20190116150337 37 135 0.0 0.0 0.00 0.00 0.00 71 1007.0
20190116145800 37 135 0.0 0.0 0.00 0.00 0.00 71 1007.0
20190116144836 37 135 0.0 0.0 0.00 0.00 0.00 70 1007.0
20190116143337 37 135 0.0 2.0 0.00 0.00 0.00 68 1007.0
20190116142800 38 135 0.0 0.0 0.00 0.00 0.00 69 1007.0
20190116141836 37 135 0.0 0.0 0.00 0.00 0.00 72 1007.0
20190116140337 37 135 0.0 0.0 0.00 0.00 0.00 71 1007.0
20190116135759 37 90 3.0 3.0 0.00 0.00 0.00 70 1007.0
20190116134836 37 135 2.0 3.0 0.00 0.00 0.00 69 1007.0
20190116133338 37 135 0.0 0.0 0.00 0.00 0.00 68 1007.0
20190116132759 37 135 0.0 0.0 0.00 0.00 0.00 67 1007.0
20190116131837 38 135 0.0 0.0 0.00 0.00 0.00 66 1007.0
20190116130336 38 135 0.0 0.0 0.00 0.00 0.00 64 1007.0
20190116125758 38 135 0.0 0.0 0.00 0.00 0.00 64 1007.0
20190116124837 38 135 0.0 0.0 0.00 0.00 0.00 65 1008.0
20190116123336 38 135 0.0 0.0 0.00 0.00 0.00 65 1007.0
20190116122824 38 135 0.0 0.0 0.00 0.00 0.00 65 1007.0
20190116122053 38 135 0.0 0.0 0.00 0.00 0.00 65 1007.0
20190116121551 38 135 0.0 0.0 0.00 0.00 0.00 64 1007.0
20190116120952 38 135 0.0 0.0 0.00 0.00 0.00 64 1007.0
20190116120336 38 135 0.0 0.0 0.00 0.00 0.00 65 1007.0
20190116114836 38 135 0.0 2.0 0.00 0.00 0.00 64 1008.0
20190116114202 39 135 0.0 0.0 0.00 0.00 0.00 63 1008.0
20190116113337 39 225 0.0 0.0 0.00 0.00 0.00 60 1007.0
20190116112021 39 225 0.0 0.0 0.00 0.00 0.00 59 1008.0
20190116111025 39 225 0.0 0.0 0.00 0.00 0.00 58 1008.0
20190116110423 40 225 0.0 0.0 0.00 0.00 0.00 57 1008.0
20190116105845 40 225 0.0 0.0 0.00 0.00 0.00 57 1008.0
20190116105029 40 292 0.0 0.0 0.00 0.00 0.00 56 1007.0
20190116104407 40 292 0.0 0.0 0.00 0.00 0.00 55 1007.0
20190116103602 40 292 0.0 0.0 0.00 0.00 0.00 54 1007.0
20190116102912 41 292 0.0 0.0 0.00 0.00 0.00 53 1007.0
20190116102402 41 292 0.0 0.0 0.00 0.00 0.00 53 1007.0
20190116101836 41 294 0.0 2.0 0.00 0.00 0.00 53 1007.0
20190116101144 41 299 0.0 0.0 0.00 0.00 0.00 53 1007.0
20190116100600 41 292 0.0 0.0 0.00 0.00 0.00 52 1007.0
20190116095848 41 305 0.0 5.0 0.00 0.00 0.00 53 1007.0
20190116095411 42 309 2.0 2.0 0.00 0.00 0.00 52 1007.0
20190116094838 42 313 5.0 8.0 0.00 0.00 0.00 53 1007.0
20190116094244 42 310 5.0 6.0 0.00 0.00 0.00 53 1007.0
20190116093515 42 315 2.0 6.0 0.00 0.00 0.00 53 1007.0
20190116092555 42 315 1.0 3.0 0.00 0.00 0.00 53 1006.0
20190116092019 42 315 0.0 2.0 0.00 0.00 0.00 53 1006.0
20190116091437 42 315 3.0 5.0 0.00 0.00 0.00 52 1006.0
20190116090337 42 311 3.0 5.0 0.00 0.00 0.00 52 1006.0
20190116090210 42 315 5.0 5.0 0.00 0.00 0.00 51 1006.0
20190116084836 43 315 0.0 0.0 0.00 0.00 0.00 50 1006.0
20190116083337 43 315 0.0 0.0 0.00 0.00 0.00 48 1006.0
20190116083211 43 315 0.0 0.0 0.00 0.00 0.00 48 1006.0
20190116082525 44 315 0.0 0.0 0.00 0.00 0.00 45 1006.0
20190116081838 44 279 0.0 2.0 0.00 0.00 0.00 43 1006.0
20190116080841 45 303 1.0 0.0 0.00 0.00 0.00 40 1006.0
20190116080338 45 292 2.0 3.0 0.00 0.00 0.00 39 1006.0
20190116074838 47 315 2.0 3.0 0.00 0.00 0.00 38 1006.0
20190116073842 48 270 0.0 2.0 0.00 0.00 0.00 37 1006.0
20190116073338 49 292 0.0 3.0 0.00 0.00 0.00 37 1006.0
20190116071839 49 292 0.0 0.0 0.00 0.00 0.00 37 1006.0
20190116070842 49 270 0.0 2.0 0.00 0.00 0.00 37 1005.0
20190116070457 48 296 0.0 0.0 0.00 0.00 0.00 37 1005.0
20190116064838 48 315 0.0 0.0 0.00 0.00 0.00 37 1005.0
20190116064717 48 315 0.0 0.0 0.00 0.00 0.00 37 1005.0
20190116063912 48 270 0.0 0.0 0.00 0.00 0.00 37 1005.0
20190116063338 48 315 0.0 0.0 0.00 0.00 0.00 37 1005.0
20190116063223 48 315 0.0 0.0 0.00 0.00 0.00 37 1005.0
20190116062655 48 315 0.0 0.0 0.00 0.00 0.00 37 1005.0
20190116062054 48 280 0.0 2.0 0.00 0.00 0.00 37 1005.0
20190116061206 49 278 0.0 3.0 0.00 0.00 0.00 37 1005.0
20190116060600 49 270 0.0 0.0 0.00 0.04 0.00 37 1005.0
20190116060257 49 270 0.0 0.0 0.00 0.04 0.00 37 1005.0
20190116055759 49 270 0.0 0.0 0.00 0.04 0.00 37 1005.0
20190116055358 49 270 0.0 0.0 0.00 0.04 0.00 37 1005.0
20190116054837 49 270 0.0 0.0 0.00 0.04 0.00 37 1005.0
20190116054130 49 270 0.0 0.0 0.00 0.04 0.00 37 1005.2
20190116053456 50 225 0.0 0.0 0.00 0.04 0.00 36 1006.0
20190116053340 50 225 0.0 2.0 0.00 0.04 0.00 36 1006.0
20190116052856 51 270 0.0 0.0 0.00 0.04 0.00 36 1006.0
20190116052435 52 235 0.0 2.0 0.00 0.04 0.00 36 1009.0
20190116051950 52 225 0.0 0.0 0.00 0.04 0.00 36 1009.0
20190116050417 52 270 0.0 0.0 0.00 0.04 0.00 36 1006.0
20190116050025 51 271 0.0 2.0 0.00 0.04 0.00 36 1006.0
20190116045626 51 281 0.0 3.0 0.00 0.04 0.00 36 1005.8
20190116044837 53 315 3.0 6.0 0.00 0.04 0.00 36 1005.0
20190116044733 53 315 3.0 6.0 0.00 0.04 0.00 36 1005.0
20190116044314 54 300 2.0 3.0 0.00 0.04 0.00 36 1005.0
20190116043339 53 296 5.0 6.0 0.00 0.04 0.00 37 1005.0
20190116042456 51 261 3.0 5.0 0.00 0.04 0.00 39 1005.0
20190116041839 49 291 3.0 5.0 0.00 0.04 0.00 40 1005.0
20190116040338 49 270 2.0 3.0 0.00 0.04 0.00 40 1005.0
20190116035457 50 270 0.0 0.0 0.00 0.04 0.00 40 1005.0
20190116034839 50 270 0.0 3.0 0.00 0.04 0.00 39 1005.0
20190116033339 52 270 0.0 0.0 0.00 0.04 0.00 39 1005.0
20190116032457 52 292 0.0 0.0 0.00 0.04 0.00 40 1005.0
20190116031816 51 292 0.0 0.0 0.00 0.04 0.00 40 1005.0
20190116030432 51 291 0.0 0.0 0.00 0.04 0.00 40 1006.0
20190116030338 51 311 2.0 3.0 0.00 0.04 0.00 40 1006.0
20190116024838 52 289 3.0 3.0 0.00 0.04 0.00 42 1005.0
20190116023432 49 309 5.0 7.0 0.00 0.04 0.00 46 1006.0
20190116022115 48 307 2.0 2.0 0.00 0.04 0.00 46 1006.0
20190116021839 49 315 3.0 5.0 0.00 0.04 0.00 46 1006.0
20190116020339 50 295 0.0 0.0 0.00 0.04 0.00 47 1006.0
20190116015117 51 275 2.0 2.0 0.00 0.04 0.00 46 1006.0
20190116014838 51 305 0.0 3.0 0.00 0.04 0.00 45 1006.0
20190116014145 52 297 2.0 3.0 0.00 0.04 0.00 45 1006.2
20190116013338 53 313 0.0 5.0 0.00 0.04 0.00 46 1007.0
20190116013013 53 309 0.0 3.0 0.00 0.04 0.00 46 1007.0
20190116012427 51 315 0.0 0.0 0.00 0.04 0.00 47 1007.0
20190116011838 50 281 0.0 0.0 0.00 0.04 0.00 47 1007.0
20190116010338 49 311 2.0 3.0 0.00 0.04 0.00 49 1006.0
20190116005332 48 298 0.0 2.0 0.00 0.04 0.00 51 1006.0
20190116004838 48 315 3.0 2.0 0.00 0.04 0.00 51 1006.0
20190116003338 47 315 5.0 3.0 0.00 0.04 0.00 54 1006.0
20190116002331 46 295 0.0 3.0 0.00 0.04 0.00 57 1006.0
20190116001839 46 310 3.0 6.0 0.00 0.04 0.00 59 1006.0
20190116000339 44 278 0.0 5.0 0.00 0.04 0.00 65 1005.0
20190115235332 44 315 3.0 2.0 0.00 0.04 0.00 65 1006.0
20190115234839 44 310 0.0 3.0 0.00 0.04 0.00 65 1006.0
20190115234035 44 292 0.0 0.0 0.00 0.04 0.00 65 1005.0
20190115233339 44 225 0.0 0.0 0.00 0.04 0.00 66 1005.0
20190115233101 44 267 0.0 2.0 0.00 0.04 0.00 67 1005.0
20190115232402 44 284 0.0 2.0 0.00 0.04 0.00 68 1006.0
20190115231839 43 270 0.0 0.0 0.00 0.04 0.00 68 1006.0
20190115231418 43 272 0.0 0.0 0.00 0.04 0.00 69 1006.0
20190115230339 43 315 0.0 0.0 0.00 0.04 0.00 69 1005.0
20190115224840 43 315 0.0 2.0 0.00 0.04 0.00 71 1005.0
20190115224415 43 315 0.0 0.0 0.00 0.04 0.00 72 1005.0
20190115223340 43 315 0.0 0.0 0.00 0.04 0.00 72 1005.0
20190115222017 42 270 0.0 0.0 0.00 0.04 0.00 75 1005.0
20190115221839 42 270 0.0 0.0 0.00 0.04 0.00 75 1005.0
20190115220339 42 270 0.0 0.0 0.00 0.04 0.00 76 1005.0
20190115215018 42 270 0.0 0.0 0.00 0.04 0.00 79 1005.0
20190115214839 42 270 0.0 0.0 0.00 0.04 0.00 80 1005.0
20190115213339 41 270 0.0 0.0 0.00 0.04 0.00 85 1005.0
20190115212018 40 270 0.0 0.0 0.00 0.04 0.00 87 1005.0
20190115211840 40 270 0.0 0.0 0.00 0.04 0.00 87 1005.0
20190115210339 40 270 0.0 0.0 0.00 0.04 0.00 88 1004.0
20190115205018 40 270 0.0 0.0 0.00 0.04 0.00 88 1004.0
20190115204839 40 270 0.0 0.0 0.00 0.04 0.00 88 1004.0
20190115203340 40 270 0.0 0.0 0.00 0.04 0.00 89 1004.0
20190115202018 41 270 0.0 0.0 0.00 0.04 0.00 89 1004.0
20190115201840 41 270 0.0 0.0 0.00 0.04 0.00 89 1004.0
20190115200340 41 270 0.0 0.0 0.00 0.04 0.00 88 1004.0
20190115195018 41 270 0.0 0.0 0.00 0.04 0.00 88 1004.0
20190115194840 41 270 0.0 0.0 0.00 0.04 0.00 88 1004.0
20190115193340 42 270 0.0 0.0 0.00 0.04 0.00 88 1004.0
20190115192019 42 270 0.0 0.0 0.00 0.04 0.00 88 1004.0
20190115191841 42 270 0.0 0.0 0.00 0.04 0.00 88 1004.0
20190115190340 42 270 0.0 2.0 0.00 0.04 0.00 88 1004.0
20190115185019 42 270 0.0 0.0 0.00 0.04 0.00 89 1004.0
20190115184840 42 270 0.0 2.0 0.00 0.04 0.00 89 1004.0
20190115183340 43 225 0.0 0.0 0.00 0.04 0.00 89 1004.0
20190115182017 43 135 0.0 0.0 0.00 0.04 0.00 90 1004.0
20190115181841 43 263 0.0 0.0 0.00 0.04 0.00 91 1004.0
20190115180340 43 261 0.0 0.0 0.00 0.04 0.00 91 1005.0
20190115175018 44 251 0.0 0.0 0.00 0.04 0.00 92 1005.0
20190115174840 44 250 0.0 0.0 0.00 0.04 0.00 92 1005.0
20190115173339 44 225 0.0 0.0 0.00 0.04 0.00 92 1005.0
20190115172019 44 225 0.0 0.0 0.00 0.04 0.00 92 1005.0
20190115171841 44 225 0.0 0.0 0.00 0.04 0.00 92 1005.0